Time;durP1;ratioP1;P1;durP2;ratioP2;P2;SDS_P1;SDS_P2;PMS_P1;PMS_P2;Temp;Humidity;BMP_temperature;BMP_pressure;BME280_temperature;BME280_humidity;BME280_pressure;Samples;Min_cycle;Max_cycle;Signal;HPM_P1;HPM_P2
2023/06/01 00:00:18;;;;;;;3.90;1.05;;;;;;;;;;5044288;28;20026;-75
2023/06/01 00:02:45;;;;;;;3.40;1.30;;;;;;;;;;5041089;28;20391;-75
2023/06/01 00:05:11;;;;;;;2.03;1.00;;;;;;;;;;5047528;28;20072;-75
2023/06/01 00:07:37;;;;;;;1.05;0.95;;;;;;;;;;5052336;28;20107;-75
2023/06/01 00:10:03;;;;;;;1.45;1.05;;;;;;;;;;5047097;28;20033;-76
2023/06/01 00:12:29;;;;;;;1.25;0.68;;;;;;;;;;5032440;28;20038;-76
2023/06/01 00:14:55;;;;;;;1.58;1.00;;;;;;;;;;5046337;28;20021;-76
2023/06/01 00:17:22;;;;;;;1.13;1.02;;;;;;;;;;5050092;28;20106;-77
2023/06/01 00:19:48;;;;;;;1.75;0.95;;;;;;;;;;5042366;28;20115;-76
2023/06/01 00:22:15;;;;;;;1.13;0.90;;;;;;;;;;5035536;28;20026;-76
2023/06/01 00:24:41;;;;;;;3.33;0.70;;;;;;;;;;5039903;28;20025;-76
2023/06/01 00:27:07;;;;;;;0.95;0.88;;;;;;;;;;5043004;28;20119;-76
2023/06/01 00:29:33;;;;;;;1.98;0.98;;;;;;;;;;5040203;28;20021;-76
2023/06/01 00:32:00;;;;;;;3.13;1.00;;;;;;;;;;5041534;28;20117;-76
2023/06/01 00:34:25;;;;;;;1.42;1.15;;;;;;;;;;5038814;28;20029;-76
2023/06/01 00:36:51;;;;;;;1.27;1.08;;;;;;;;;;5035413;28;20539;-75
2023/06/01 00:39:17;;;;;;;3.17;1.00;;;;;;;;;;5039475;28;20403;-76
2023/06/01 00:41:43;;;;;;;1.58;0.82;;;;;;;;;;5038152;28;20028;-76
2023/06/01 00:44:09;;;;;;;1.10;0.80;;;;;;;;;;5038965;28;20032;-75
2023/06/01 00:46:37;;;;;;;2.88;1.23;;;;;;;;;;5042570;28;20070;-76
2023/06/01 00:49:03;;;;;;;1.33;0.85;;;;;;;;;;5047484;28;20487;-76
2023/06/01 00:51:29;;;;;;;1.00;0.80;;;;;;;;;;5034532;28;20037;-76
2023/06/01 00:53:55;;;;;;;1.90;1.02;;;;;;;;;;5048473;28;20017;-76
2023/06/01 00:56:21;;;;;;;1.77;0.90;;;;;;;;;;5031744;28;20337;-76
2023/06/01 00:58:48;;;;;;;2.15;1.15;;;;;;;;;;5043410;28;20021;-75
2023/06/01 01:01:22;;;;;;;1.48;1.00;;;;;;;;;;5038613;28;20111;-75
2023/06/01 01:03:49;;;;;;;0.40;0.40;;;;;;;;;;5042460;28;20036;-75
2023/06/01 01:06:17;;;;;;;1.20;1.00;;;;;;;;;;5036986;28;20045;-75
2023/06/01 01:08:52;;;;;;;2.70;1.02;;;;;;;;;;5045742;28;20547;-75
2023/06/01 01:11:24;;;;;;;1.02;1.00;;;;;;;;;;5039032;28;20041;-76
2023/06/01 01:14:12;;;;;;;2.05;1.02;;;;;;;;;;5043687;28;20052;-77
2023/06/01 01:16:49;;;;;;;1.00;0.90;;;;;;;;;;5035936;28;20025;-75
2023/06/01 01:19:21;;;;;;;1.50;0.77;;;;;;;;;;5040899;28;20048;-74
2023/06/01 01:21:47;;;;;;;;;;;;;;;;;;5042476;28;20353;-75
2023/06/01 01:24:32;;;;;;;0.93;0.65;;;;;;;;;;5034562;28;19920;-74
2023/06/01 01:27:08;;;;;;;5.03;0.90;;;;;;;;;;5040719;28;20021;-75
2023/06/01 01:29:34;;;;;;;1.70;0.80;;;;;;;;;;5040019;28;20071;-73
2023/06/01 01:32:01;;;;;;;1.27;0.88;;;;;;;;;;5043965;28;20426;-74
2023/06/01 01:34:28;;;;;;;1.50;0.93;;;;;;;;;;5031034;28;20785;-74
2023/06/01 01:36:54;;;;;;;1.67;0.80;;;;;;;;;;5040370;28;20483;-75
2023/06/01 01:39:20;;;;;;;1.08;1.00;;;;;;;;;;5029463;28;20112;-75
2023/06/01 01:41:46;;;;;;;1.05;0.60;;;;;;;;;;5043675;28;20422;-75
2023/06/01 01:44:14;;;;;;;1.10;0.85;;;;;;;;;;5038779;28;20030;-76
2023/06/01 01:47:01;;;;;;;0.50;0.50;;;;;;;;;;5044629;28;20021;-76
2023/06/01 01:49:29;;;;;;;3.20;1.58;;;;;;;;;;5037374;28;20319;-76
2023/06/01 01:52:14;;;;;;;1.52;1.00;;;;;;;;;;5038869;28;20033;-77
2023/06/01 01:54:44;;;;;;;1.55;0.68;;;;;;;;;;5035898;28;20102;-76
2023/06/01 01:57:10;;;;;;;1.15;0.90;;;;;;;;;;5048375;28;20028;-76
2023/06/01 01:59:37;;;;;;;1.88;0.80;;;;;;;;;;5035130;28;20029;-76
2023/06/01 02:02:03;;;;;;;2.05;0.93;;;;;;;;;;5043504;28;20052;-75
2023/06/01 02:04:30;;;;;;;1.25;1.15;;;;;;;;;;5040927;28;20558;-76
2023/06/01 02:06:57;;;;;;;1.63;0.73;;;;;;;;;;5038984;28;20063;-76
2023/06/01 02:09:23;;;;;;;1.33;0.80;;;;;;;;;;5044646;28;20037;-76
2023/06/01 02:11:49;;;;;;;1.33;0.70;;;;;;;;;;5033761;28;20022;-76
2023/06/01 02:14:15;;;;;;;2.85;0.70;;;;;;;;;;5043736;28;20060;-76
2023/06/01 02:16:41;;;;;;;1.20;1.10;;;;;;;;;;5040841;28;20022;-76
2023/06/01 02:19:10;;;;;;;0.75;0.70;;;;;;;;;;5036115;28;20040;-76
2023/06/01 02:21:36;;;;;;;0.85;0.75;;;;;;;;;;5039529;28;20033;-76
2023/06/01 02:24:05;;;;;;;0.70;0.60;;;;;;;;;;5047917;28;20028;-76
2023/06/01 02:26:31;;;;;;;2.08;0.80;;;;;;;;;;5031099;28;20476;-76
2023/06/01 02:28:57;;;;;;;2.40;1.02;;;;;;;;;;5043338;28;20038;-76
2023/06/01 02:31:23;;;;;;;1.70;1.00;;;;;;;;;;5047107;28;20029;-76
2023/06/01 02:33:50;;;;;;;1.15;0.70;;;;;;;;;;5046514;28;20499;-76
2023/06/01 02:36:16;;;;;;;1.13;1.02;;;;;;;;;;5037835;28;20430;-76
2023/06/01 02:38:42;;;;;;;2.55;0.90;;;;;;;;;;5043758;28;20021;-76
2023/06/01 02:41:08;;;;;;;2.85;1.05;;;;;;;;;;5038387;28;20017;-76
2023/06/01 02:43:35;;;;;;;1.10;0.80;;;;;;;;;;5042955;28;20082;-76
2023/06/01 02:46:01;;;;;;;0.80;0.73;;;;;;;;;;5036162;28;20083;-76
2023/06/01 02:48:27;;;;;;;1.00;0.80;;;;;;;;;;5046311;28;20033;-76
2023/06/01 02:50:53;;;;;;;2.13;0.75;;;;;;;;;;5043604;28;20392;-76
2023/06/01 02:53:20;;;;;;;1.58;0.95;;;;;;;;;;5049239;28;20039;-75
2023/06/01 02:55:46;;;;;;;1.30;0.82;;;;;;;;;;5043388;28;20025;-75
2023/06/01 02:58:16;;;;;;;3.30;0.80;;;;;;;;;;5033796;28;20495;-76
2023/06/01 03:00:45;;;;;;;1.13;0.90;;;;;;;;;;5037401;28;20026;-76
2023/06/01 03:03:11;;;;;;;1.77;0.90;;;;;;;;;;5045314;28;20128;-76
2023/06/01 03:05:38;;;;;;;1.10;0.70;;;;;;;;;;5044113;28;20060;-76
2023/06/01 03:08:05;;;;;;;4.22;1.55;;;;;;;;;;5036495;28;20037;-76
2023/06/01 03:10:31;;;;;;;1.48;1.02;;;;;;;;;;5039384;28;20017;-76
2023/06/01 03:12:57;;;;;;;0.80;0.70;;;;;;;;;;5044465;28;20032;-76
2023/06/01 03:15:23;;;;;;;0.90;0.70;;;;;;;;;;5036574;28;20041;-76
2023/06/01 03:17:49;;;;;;;0.88;0.85;;;;;;;;;;5042345;28;20025;-76
2023/06/01 03:20:15;;;;;;;1.00;0.60;;;;;;;;;;5035908;28;20022;-76
2023/06/01 03:22:45;;;;;;;2.45;1.10;;;;;;;;;;5034667;28;20044;-76
2023/06/01 03:25:12;;;;;;;1.35;1.05;;;;;;;;;;5050126;28;20414;-76
2023/06/01 03:27:38;;;;;;;0.90;0.80;;;;;;;;;;5048757;28;20056;-76
2023/06/01 03:30:09;;;;;;;2.33;0.80;;;;;;;;;;5041286;28;20438;-76
2023/06/01 03:32:35;;;;;;;1.00;0.82;;;;;;;;;;5041648;28;20106;-77
2023/06/01 03:35:01;;;;;;;1.10;0.93;;;;;;;;;;5041693;28;20029;-76
2023/06/01 03:37:27;;;;;;;0.68;0.68;;;;;;;;;;5045617;28;20033;-76
2023/06/01 03:39:53;;;;;;;1.25;0.80;;;;;;;;;;5043855;28;20068;-76
2023/06/01 03:42:19;;;;;;;3.55;0.70;;;;;;;;;;5038438;28;20074;-76
2023/06/01 03:44:45;;;;;;;3.10;0.80;;;;;;;;;;5044403;28;20021;-76
2023/06/01 03:47:13;;;;;;;1.15;0.60;;;;;;;;;;5050599;28;20070;-76
2023/06/01 03:49:39;;;;;;;1.20;0.68;;;;;;;;;;5048198;28;20021;-76
2023/06/01 03:52:05;;;;;;;0.98;0.80;;;;;;;;;;5048367;28;20045;-76
2023/06/01 03:54:31;;;;;;;0.85;0.77;;;;;;;;;;5040657;28;20525;-76
2023/06/01 03:56:57;;;;;;;0.95;0.70;;;;;;;;;;5050569;28;20055;-76
2023/06/01 03:59:24;;;;;;;1.95;0.68;;;;;;;;;;5035547;28;20041;-76
2023/06/01 04:01:51;;;;;;;9.00;0.88;;;;;;;;;;5044941;28;20108;-76
2023/06/01 04:04:17;;;;;;;0.90;0.73;;;;;;;;;;5035964;28;20024;-76
2023/06/01 04:06:45;;;;;;;1.23;0.85;;;;;;;;;;5041301;28;20033;-75
2023/06/01 04:09:11;;;;;;;0.82;0.80;;;;;;;;;;5040109;28;20032;-75
2023/06/01 04:11:40;;;;;;;1.35;0.82;;;;;;;;;;5041021;28;20033;-76
2023/06/01 04:14:06;;;;;;;1.02;0.80;;;;;;;;;;5042515;28;20444;-75
2023/06/01 04:16:32;;;;;;;0.95;0.90;;;;;;;;;;5035850;28;20460;-75
2023/06/01 04:18:58;;;;;;;1.20;0.80;;;;;;;;;;5046181;28;20025;-76
2023/06/01 04:21:25;;;;;;;1.00;0.68;;;;;;;;;;5043812;28;20029;-75
2023/06/01 04:23:51;;;;;;;2.75;1.00;;;;;;;;;;5036308;28;20025;-75
2023/06/01 04:26:18;;;;;;;1.58;1.10;;;;;;;;;;5043262;28;20479;-76
2023/06/01 04:28:44;;;;;;;2.22;1.00;;;;;;;;;;5031306;28;20037;-76
2023/06/01 04:31:16;;;;;;;1.15;0.90;;;;;;;;;;5033275;28;20607;-75
2023/06/01 04:33:44;;;;;;;0.70;0.60;;;;;;;;;;5043257;28;20511;-76
2023/06/01 04:36:11;;;;;;;1.08;0.90;;;;;;;;;;5039458;28;20072;-77
2023/06/01 04:38:38;;;;;;;0.80;0.80;;;;;;;;;;5034179;28;20119;-78
2023/06/01 04:41:05;;;;;;;3.38;1.20;;;;;;;;;;5038528;28;20025;-77
2023/06/01 04:43:31;;;;;;;0.90;0.90;;;;;;;;;;5052884;28;20120;-78
2023/06/01 04:46:04;;;;;;;0.95;0.75;;;;;;;;;;5034908;28;20026;-79
2023/06/01 04:48:31;;;;;;;1.63;0.85;;;;;;;;;;5043165;28;20111;-79
2023/06/01 04:50:57;;;;;;;2.00;0.82;;;;;;;;;;5036427;28;20032;-78
2023/06/01 04:53:23;;;;;;;0.75;0.73;;;;;;;;;;5046068;28;20033;-78
2023/06/01 04:55:50;;;;;;;1.00;0.82;;;;;;;;;;5043843;28;20052;-77
2023/06/01 04:58:16;;;;;;;1.58;0.93;;;;;;;;;;5040376;28;20105;-76
2023/06/01 05:00:42;;;;;;;2.70;1.27;;;;;;;;;;5045174;28;20033;-76
2023/06/01 05:03:08;;;;;;;1.67;1.00;;;;;;;;;;5033823;28;20040;-76
2023/06/01 05:05:34;;;;;;;2.33;1.60;;;;;;;;;;5040186;28;20113;-75
2023/06/01 05:08:00;;;;;;;1.25;0.80;;;;;;;;;;5036259;28;20078;-78
2023/06/01 05:10:26;;;;;;;1.13;1.02;;;;;;;;;;5043184;28;20118;-78
2023/06/01 05:12:52;;;;;;;1.13;0.85;;;;;;;;;;5049306;28;20025;-78
2023/06/01 05:15:18;;;;;;;1.90;0.88;;;;;;;;;;5048510;28;20040;-77
2023/06/01 05:17:44;;;;;;;4.40;0.80;;;;;;;;;;5038710;28;20037;-78
2023/06/01 05:20:11;;;;;;;1.10;0.95;;;;;;;;;;5040455;28;20688;-77
2023/06/01 05:22:37;;;;;;;1.05;1.00;;;;;;;;;;5030938;28;20029;-78
2023/06/01 05:25:05;;;;;;;3.88;1.50;;;;;;;;;;5039043;28;20025;-75
2023/06/01 05:27:31;;;;;;;1.40;0.90;;;;;;;;;;5053989;28;20036;-76
2023/06/01 05:29:57;;;;;;;1.83;0.80;;;;;;;;;;5053067;28;20025;-76
2023/06/01 05:32:23;;;;;;;1.00;0.88;;;;;;;;;;5038951;28;20060;-87
2023/06/01 05:34:49;;;;;;;0.80;0.80;;;;;;;;;;5042024;28;20472;-83
2023/06/01 05:37:15;;;;;;;0.90;0.90;;;;;;;;;;5033381;28;20033;-76
2023/06/01 05:39:41;;;;;;;3.65;1.50;;;;;;;;;;5040988;28;20029;-76
2023/06/01 05:42:07;;;;;;;2.15;1.33;;;;;;;;;;5048263;28;20025;-75
2023/06/01 05:44:33;;;;;;;2.75;1.27;;;;;;;;;;5046251;28;20082;-76
2023/06/01 05:46:59;;;;;;;5.78;0.95;;;;;;;;;;5040842;28;20104;-76
2023/06/01 05:49:25;;;;;;;1.38;1.13;;;;;;;;;;5043502;28;20098;-76
2023/06/01 05:51:51;;;;;;;1.33;0.90;;;;;;;;;;5048775;28;20025;-76
2023/06/01 05:54:17;;;;;;;1.20;1.05;;;;;;;;;;5048421;28;20033;-76
2023/06/01 05:56:44;;;;;;;5.57;0.88;;;;;;;;;;5048204;28;20029;-76
2023/06/01 05:59:10;;;;;;;2.13;0.80;;;;;;;;;;5045751;28;20230;-77
2023/06/01 06:01:36;;;;;;;4.00;1.17;;;;;;;;;;5029745;28;20040;-76
2023/06/01 06:04:02;;;;;;;2.65;1.00;;;;;;;;;;5041386;28;20017;-76
2023/06/01 06:06:28;;;;;;;1.60;1.45;;;;;;;;;;5047941;28;20128;-76
2023/06/01 06:08:54;;;;;;;1.52;1.13;;;;;;;;;;5061246;28;20040;-76
2023/06/01 06:11:21;;;;;;;1.27;1.00;;;;;;;;;;5057758;28;20025;-76
2023/06/01 06:13:49;;;;;;;1.23;0.82;;;;;;;;;;5040971;28;20028;-76
2023/06/01 06:16:15;;;;;;;0.98;0.75;;;;;;;;;;5047943;28;20364;-76
2023/06/01 06:18:41;;;;;;;1.17;0.98;;;;;;;;;;5048401;28;20032;-76
2023/06/01 06:21:07;;;;;;;3.83;1.38;;;;;;;;;;5047804;28;20053;-76
2023/06/01 06:23:33;;;;;;;2.42;1.30;;;;;;;;;;5043613;28;20130;-76
2023/06/01 06:25:59;;;;;;;1.92;1.25;;;;;;;;;;5038444;28;20028;-76
2023/06/01 06:28:26;;;;;;;2.72;1.38;;;;;;;;;;5041141;28;20025;-76
2023/06/01 06:30:52;;;;;;;1.52;1.00;;;;;;;;;;5048039;28;20021;-77
2023/06/01 06:33:18;;;;;;;0.77;0.77;;;;;;;;;;5047966;28;20029;-76
2023/06/01 06:35:44;;;;;;;2.97;0.90;;;;;;;;;;5046055;28;20059;-77
2023/06/01 06:38:13;;;;;;;0.98;0.90;;;;;;;;;;5041748;28;20025;-76
2023/06/01 06:40:38;;;;;;;0.98;0.75;;;;;;;;;;5047874;28;20036;-76
2023/06/01 06:43:04;;;;;;;1.05;0.88;;;;;;;;;;5047792;28;20029;-76
2023/06/01 06:45:33;;;;;;;1.50;1.10;;;;;;;;;;5049858;28;20068;-76
2023/06/01 06:47:59;;;;;;;0.80;0.80;;;;;;;;;;5036367;28;20030;-76
2023/06/01 06:50:25;;;;;;;2.38;1.42;;;;;;;;;;5049648;28;20357;-76
2023/06/01 06:52:51;;;;;;;1.85;0.98;;;;;;;;;;5051862;28;20028;-76
2023/06/01 06:55:17;;;;;;;0.77;0.68;;;;;;;;;;5051322;28;20025;-76
2023/06/01 06:57:43;;;;;;;0.80;0.77;;;;;;;;;;5051620;28;20033;-76
2023/06/01 07:00:14;;;;;;;2.10;1.17;;;;;;;;;;5048264;28;20032;-76
2023/06/01 07:02:40;;;;;;;0.90;0.80;;;;;;;;;;5037922;28;20384;-77
2023/06/01 07:05:08;;;;;;;2.28;0.90;;;;;;;;;;5051117;28;20136;-76
2023/06/01 07:07:34;;;;;;;1.55;0.90;;;;;;;;;;5053873;28;20042;-77
2023/06/01 07:10:00;;;;;;;1.10;1.00;;;;;;;;;;5071797;28;20021;-77
2023/06/01 07:12:26;;;;;;;2.05;1.25;;;;;;;;;;5062280;28;20509;-76
2023/06/01 07:14:52;;;;;;;2.30;1.02;;;;;;;;;;5049886;28;20033;-76
2023/06/01 07:17:18;;;;;;;1.15;0.80;;;;;;;;;;5048433;28;20076;-75
2023/06/01 07:19:44;;;;;;;0.90;0.80;;;;;;;;;;5051354;28;20079;-76
2023/06/01 07:22:10;;;;;;;1.42;1.08;;;;;;;;;;5050918;28;20033;-76
2023/06/01 07:24:36;;;;;;;1.02;0.80;;;;;;;;;;5051434;28;20021;-76
2023/06/01 07:27:09;;;;;;;1.40;0.95;;;;;;;;;;5039972;28;20022;-76
2023/06/01 07:29:36;;;;;;;2.95;1.55;;;;;;;;;;5051030;28;20044;-76
2023/06/01 07:32:02;;;;;;;1.20;1.00;;;;;;;;;;5050962;28;20395;-76
2023/06/01 07:34:28;;;;;;;1.30;1.00;;;;;;;;;;5050761;28;20024;-76
2023/06/01 07:36:54;;;;;;;0.70;0.70;;;;;;;;;;5045400;28;20400;-76
2023/06/01 07:39:20;;;;;;;1.63;1.05;;;;;;;;;;5041952;28;20064;-76
2023/06/01 07:41:47;;;;;;;1.05;0.90;;;;;;;;;;5050986;28;20021;-77
2023/06/01 07:44:13;;;;;;;1.65;1.00;;;;;;;;;;5050972;28;20063;-76
2023/06/01 07:46:39;;;;;;;0.65;0.60;;;;;;;;;;5039386;28;20437;-76
2023/06/01 07:49:06;;;;;;;1.13;0.88;;;;;;;;;;5061748;28;20018;-75
2023/06/01 07:51:32;;;;;;;0.95;0.85;;;;;;;;;;5050617;28;20029;-76
2023/06/01 07:53:59;;;;;;;0.80;0.80;;;;;;;;;;5048816;28;20102;-76
2023/06/01 07:56:26;;;;;;;1.63;0.73;;;;;;;;;;5048024;28;20028;-76
2023/06/01 07:58:52;;;;;;;1.08;0.80;;;;;;;;;;5050706;28;20047;-77
2023/06/01 08:01:18;;;;;;;1.13;0.95;;;;;;;;;;5050564;28;20028;-76
2023/06/01 08:03:45;;;;;;;1.63;1.40;;;;;;;;;;5045405;28;20083;-76
2023/06/01 08:06:11;;;;;;;2.03;1.13;;;;;;;;;;5046252;28;20033;-76
2023/06/01 08:08:37;;;;;;;1.25;0.80;;;;;;;;;;5061469;28;20033;-76
2023/06/01 08:11:03;;;;;;;1.27;1.00;;;;;;;;;;5070326;28;20032;-76
2023/06/01 08:13:29;;;;;;;1.63;0.80;;;;;;;;;;5069989;28;20036;-76
2023/06/01 08:15:55;;;;;;;1.05;0.70;;;;;;;;;;5043561;28;20025;-77
2023/06/01 08:18:22;;;;;;;1.20;0.90;;;;;;;;;;5050200;28;20626;-77
2023/06/01 08:20:48;;;;;;;1.35;0.70;;;;;;;;;;5049984;28;20049;-76
2023/06/01 08:23:16;;;;;;;1.60;0.90;;;;;;;;;;5050066;28;20028;-77
2023/06/01 08:25:42;;;;;;;1.15;0.70;;;;;;;;;;5045437;28;20037;-77
2023/06/01 08:28:08;;;;;;;0.77;0.70;;;;;;;;;;5049839;28;20559;-77
2023/06/01 08:30:36;;;;;;;1.40;1.10;;;;;;;;;;5049780;28;20032;-77
2023/06/01 08:33:02;;;;;;;1.77;1.20;;;;;;;;;;5047163;28;20040;-76
2023/06/01 08:35:33;;;;;;;2.47;0.82;;;;;;;;;;5050685;28;20029;-75
2023/06/01 08:37:59;;;;;;;2.00;0.63;;;;;;;;;;5050552;28;20056;-76
2023/06/01 08:40:25;;;;;;;1.38;0.70;;;;;;;;;;5050294;28;20029;-76
2023/06/01 08:42:57;;;;;;;0.50;0.50;;;;;;;;;;5043466;28;20425;-76
2023/06/01 08:45:24;;;;;;;1.13;0.75;;;;;;;;;;5047608;28;20029;-76
2023/06/01 08:47:53;;;;;;;1.80;1.02;;;;;;;;;;5050968;28;20021;-75
2023/06/01 08:50:19;;;;;;;1.98;1.20;;;;;;;;;;5050069;28;20159;-75
2023/06/01 08:52:46;;;;;;;1.38;0.80;;;;;;;;;;5050285;28;20028;-74
2023/06/01 08:55:13;;;;;;;0.90;0.88;;;;;;;;;;5049241;28;20032;-76
2023/06/01 08:57:42;;;;;;;0.70;0.70;;;;;;;;;;5050420;28;20055;-76
2023/06/01 09:00:09;;;;;;;1.02;0.60;;;;;;;;;;5042560;28;20021;-75
2023/06/01 09:02:35;;;;;;;0.82;0.80;;;;;;;;;;5044505;28;20471;-76
2023/06/01 09:05:01;;;;;;;0.68;0.68;;;;;;;;;;5042033;28;20095;-76
2023/06/01 09:07:27;;;;;;;1.17;0.80;;;;;;;;;;5044359;28;20078;-76
2023/06/01 09:09:53;;;;;;;0.95;0.73;;;;;;;;;;5070465;28;20426;-76
2023/06/01 09:12:21;;;;;;;1.13;0.90;;;;;;;;;;5070285;28;20029;-76
2023/06/01 09:14:47;;;;;;;0.65;0.63;;;;;;;;;;5065862;28;20458;-76
2023/06/01 09:17:15;;;;;;;1.30;0.90;;;;;;;;;;5045058;28;20449;-76
2023/06/01 09:19:42;;;;;;;1.13;0.95;;;;;;;;;;5039747;28;20029;-76
2023/06/01 09:22:08;;;;;;;0.82;0.70;;;;;;;;;;5042585;28;20033;-76
2023/06/01 09:24:34;;;;;;;1.60;1.23;;;;;;;;;;5040149;28;20407;-75
2023/06/01 09:27:00;;;;;;;1.02;0.70;;;;;;;;;;5050102;28;20380;-76
2023/06/01 09:29:27;;;;;;;1.38;0.80;;;;;;;;;;5046564;28;20036;-76
2023/06/01 09:31:53;;;;;;;0.80;0.70;;;;;;;;;;5049110;28;20035;-76
2023/06/01 09:34:20;;;;;;;0.90;0.70;;;;;;;;;;5049458;28;20021;-76
2023/06/01 09:36:50;;;;;;;2.05;0.80;;;;;;;;;;5051539;28;20025;-76
2023/06/01 09:39:18;;;;;;;3.22;1.10;;;;;;;;;;5051955;28;20029;-76
2023/06/01 09:41:47;;;;;;;1.80;0.88;;;;;;;;;;5049276;28;20132;-76
2023/06/01 09:44:14;;;;;;;1.40;1.05;;;;;;;;;;5049810;28;20103;-76
2023/06/01 09:46:50;;;;;;;1.30;1.00;;;;;;;;;;5049401;28;20021;-76
2023/06/01 09:49:22;;;;;;;1.02;0.75;;;;;;;;;;5046841;28;20021;-76
2023/06/01 09:51:48;;;;;;;1.30;0.70;;;;;;;;;;5050134;28;20105;-76
2023/06/01 09:54:25;;;;;;;1.88;0.82;;;;;;;;;;5050189;28;20024;-75
2023/06/01 09:56:52;;;;;;;0.82;0.70;;;;;;;;;;5049943;28;20025;-75
2023/06/01 09:59:18;;;;;;;0.80;0.80;;;;;;;;;;5047160;28;20025;-77
2023/06/01 10:01:44;;;;;;;0.82;0.82;;;;;;;;;;5048706;28;20021;-76
2023/06/01 10:04:11;;;;;;;2.00;0.90;;;;;;;;;;5045461;28;20035;-75
2023/06/01 10:06:40;;;;;;;1.00;0.63;;;;;;;;;;5049086;28;20102;-76
2023/06/01 10:09:09;;;;;;;1.58;0.90;;;;;;;;;;5056206;28;20480;-75
2023/06/01 10:11:35;;;;;;;1.55;0.77;;;;;;;;;;5050144;28;20032;-76
2023/06/01 10:14:02;;;;;;;1.27;0.88;;;;;;;;;;5048541;28;20033;-76
2023/06/01 10:16:28;;;;;;;1.30;1.00;;;;;;;;;;5050003;28;20104;-76
2023/06/01 10:18:55;;;;;;;1.33;0.80;;;;;;;;;;5049076;28;20029;-74
2023/06/01 10:21:21;;;;;;;2.55;0.80;;;;;;;;;;5041461;28;20048;-76
2023/06/01 10:23:47;;;;;;;2.40;0.95;;;;;;;;;;5047342;28;20029;-76
2023/06/01 10:26:15;;;;;;;0.95;0.75;;;;;;;;;;5048761;28;20681;-74
2023/06/01 10:28:42;;;;;;;1.73;1.30;;;;;;;;;;5048424;28;20029;-77
2023/06/01 10:31:27;;;;;;;1.30;1.20;;;;;;;;;;5040375;28;20032;-75
2023/06/01 10:33:54;;;;;;;0.73;0.73;;;;;;;;;;5048317;28;20027;-76
2023/06/01 10:36:20;;;;;;;1.83;0.82;;;;;;;;;;5046759;28;20033;-76
2023/06/01 10:38:46;;;;;;;0.80;0.80;;;;;;;;;;5048281;28;20368;-76
2023/06/01 10:41:28;;;;;;;1.38;1.23;;;;;;;;;;5046061;28;20085;-76
2023/06/01 10:43:55;;;;;;;1.73;1.10;;;;;;;;;;5036887;28;20104;-75
2023/06/01 10:46:40;;;;;;;1.77;0.95;;;;;;;;;;5048366;28;20407;-76
2023/06/01 10:49:07;;;;;;;1.85;1.13;;;;;;;;;;5046483;28;20041;-75
2023/06/01 10:51:33;;;;;;;1.67;0.75;;;;;;;;;;5043641;28;20204;-76
2023/06/01 10:54:19;;;;;;;1.15;0.82;;;;;;;;;;5040196;28;20123;-75
2023/06/01 10:56:45;;;;;;;1.45;1.02;;;;;;;;;;5040211;28;20112;-76
2023/06/01 10:59:11;;;;;;;1.90;1.10;;;;;;;;;;5046137;28;20051;-75
2023/06/01 11:01:41;;;;;;;3.00;1.00;;;;;;;;;;5042935;28;20066;-75
2023/06/01 11:04:08;;;;;;;0.70;0.70;;;;;;;;;;5041455;28;20033;-76
2023/06/01 11:06:39;;;;;;;1.15;0.98;;;;;;;;;;5045971;28;20107;-76
2023/06/01 11:09:12;;;;;;;1.27;1.00;;;;;;;;;;5063550;28;20040;-75
2023/06/01 11:11:55;;;;;;;0.93;0.93;;;;;;;;;;5063474;28;20483;-75
2023/06/01 11:14:30;;;;;;;1.42;0.85;;;;;;;;;;5031701;28;20477;-76
2023/06/01 11:17:18;;;;;;;1.15;0.93;;;;;;;;;;5040639;28;20024;-76
2023/06/01 11:19:44;;;;;;;8.13;0.90;;;;;;;;;;5044867;28;20123;-76
2023/06/01 11:22:12;;;;;;;1.60;0.70;;;;;;;;;;5046245;28;20026;-76
2023/06/01 11:24:38;;;;;;;3.33;1.33;;;;;;;;;;5041028;28;20126;-75
2023/06/01 11:27:07;;;;;;;1.30;1.00;;;;;;;;;;5035651;28;20064;-75
2023/06/01 11:29:34;;;;;;;1.15;1.00;;;;;;;;;;5044022;28;20025;-76
2023/06/01 11:32:01;;;;;;;0.93;0.88;;;;;;;;;;5046859;28;20017;-76
2023/06/01 11:34:41;;;;;;;1.50;1.30;;;;;;;;;;5049583;28;20483;-77
2023/06/01 11:37:17;;;;;;;1.73;1.30;;;;;;;;;;5047343;28;20020;-75
2023/06/01 11:39:45;;;;;;;2.13;1.50;;;;;;;;;;5044518;28;20033;-76
2023/06/01 11:42:18;;;;;;;1.70;1.30;;;;;;;;;;5050900;28;20028;-76
2023/06/01 11:44:57;;;;;;;2.03;1.40;;;;;;;;;;5050459;28;20098;-76
2023/06/01 11:47:23;;;;;;;2.17;1.60;;;;;;;;;;5050592;28;20041;-76
2023/06/01 11:49:50;;;;;;;3.17;1.33;;;;;;;;;;5046291;28;20449;-77
2023/06/01 11:52:19;;;;;;;2.40;1.40;;;;;;;;;;5051174;28;20039;-77
2023/06/01 11:54:46;;;;;;;2.47;1.23;;;;;;;;;;5050820;28;20079;-76
2023/06/01 11:57:12;;;;;;;3.45;1.63;;;;;;;;;;5051149;28;20025;-76
2023/06/01 11:59:42;;;;;;;2.55;1.30;;;;;;;;;;5043967;28;20037;-76
2023/06/01 12:02:21;;;;;;;2.95;1.60;;;;;;;;;;5050408;28;20116;-76
2023/06/01 12:04:58;;;;;;;2.05;1.40;;;;;;;;;;5050571;28;20110;-76
2023/06/01 12:07:32;;;;;;;2.35;1.50;;;;;;;;;;5043972;28;20036;-78
2023/06/01 12:10:01;;;;;;;2.35;1.50;;;;;;;;;;5049668;28;20020;-77
2023/06/01 12:12:33;;;;;;;1.70;1.58;;;;;;;;;;5066214;28;20025;-77
2023/06/01 12:14:59;;;;;;;3.33;1.90;;;;;;;;;;5062238;28;20090;-74
2023/06/01 12:17:25;;;;;;;1.50;1.20;;;;;;;;;;5053501;28;20105;-76
2023/06/01 12:19:51;;;;;;;1.83;1.25;;;;;;;;;;5036868;28;20022;-77
2023/06/01 12:22:18;;;;;;;2.85;1.90;;;;;;;;;;5063310;28;20060;-75
2023/06/01 12:24:47;;;;;;;1.92;1.10;;;;;;;;;;5049770;28;20036;-79
2023/06/01 12:27:47;;;;;;;1.52;1.17;;;;;;;;;;5045675;28;20019;-78
2023/06/01 12:30:22;;;;;;;1.85;1.40;;;;;;;;;;5031578;28;20111;-76
2023/06/01 12:32:48;;;;;;;2.00;1.63;;;;;;;;;;5037040;28;20026;-78
2023/06/01 12:35:14;;;;;;;1.85;1.52;;;;;;;;;;5048680;28;20036;-79
2023/06/01 12:37:40;;;;;;;2.15;1.27;;;;;;;;;;5053355;28;20021;-79
2023/06/01 12:40:06;;;;;;;1.02;0.93;;;;;;;;;;5045099;28;20065;-79
2023/06/01 12:42:39;;;;;;;2.70;1.65;;;;;;;;;;5044914;28;20025;-79
2023/06/01 12:45:05;;;;;;;3.22;1.60;;;;;;;;;;5054477;28;20041;-78
2023/06/01 12:47:38;;;;;;;2.72;1.98;;;;;;;;;;5041240;28;20437;-79
2023/06/01 12:50:05;;;;;;;1.48;1.30;;;;;;;;;;5042423;28;20028;-78
2023/06/01 12:52:31;;;;;;;4.32;1.98;;;;;;;;;;5034108;28;20642;-78
2023/06/01 12:54:57;;;;;;;1.55;1.45;;;;;;;;;;5037614;28;20104;-78
2023/06/01 12:57:23;;;;;;;2.17;1.52;;;;;;;;;;5046291;28;20037;-78
2023/06/01 12:59:49;;;;;;;1.45;1.17;;;;;;;;;;5044770;28;20087;-79
2023/06/01 13:02:15;;;;;;;1.38;1.17;;;;;;;;;;5044665;28;20029;-79
2023/06/01 13:04:42;;;;;;;2.28;1.27;;;;;;;;;;5045592;28;20025;-78
2023/06/01 13:07:08;;;;;;;1.15;1.05;;;;;;;;;;5044388;28;20104;-79
2023/06/01 13:09:34;;;;;;;1.42;1.20;;;;;;;;;;5042182;28;20041;-78
2023/06/01 13:12:00;;;;;;;2.90;1.52;;;;;;;;;;5039897;28;20048;-80
2023/06/01 13:14:26;;;;;;;1.25;1.10;;;;;;;;;;5031633;28;20037;-83
2023/06/01 13:16:52;;;;;;;1.70;1.33;;;;;;;;;;5043967;28;20076;-77
2023/06/01 13:19:18;;;;;;;1.25;1.08;;;;;;;;;;5032710;28;20253;-80
2023/06/01 13:21:44;;;;;;;1.77;1.48;;;;;;;;;;5031163;28;20036;-76
2023/06/01 13:24:10;;;;;;;1.70;1.55;;;;;;;;;;5040430;28;20567;-80
2023/06/01 13:26:37;;;;;;;1.88;1.58;;;;;;;;;;5040294;28;20021;-78
2023/06/01 13:29:06;;;;;;;1.65;1.30;;;;;;;;;;5047260;28;20479;-77
2023/06/01 13:31:32;;;;;;;1.67;1.40;;;;;;;;;;5034162;28;20389;-75
2023/06/01 13:33:58;;;;;;;1.20;1.10;;;;;;;;;;5035151;28;20029;-78
2023/06/01 13:36:24;;;;;;;2.47;1.40;;;;;;;;;;5038085;28;20292;-79
2023/06/01 13:38:50;;;;;;;3.08;1.40;;;;;;;;;;5031586;28;20087;-79
2023/06/01 13:41:16;;;;;;;2.13;1.20;;;;;;;;;;5032464;28;20112;-80
2023/06/01 13:43:42;;;;;;;1.42;1.10;;;;;;;;;;5033345;28;20033;-76
2023/06/01 13:46:09;;;;;;;3.15;1.30;;;;;;;;;;5035997;28;20040;-79
2023/06/01 13:48:35;;;;;;;1.80;1.40;;;;;;;;;;5034814;28;20024;-78
2023/06/01 13:51:01;;;;;;;2.33;1.65;;;;;;;;;;5040416;28;20402;-76
2023/06/01 13:53:30;;;;;;;1.45;1.20;;;;;;;;;;5033685;28;20025;-78
2023/06/01 13:56:00;;;;;;;3.05;1.30;;;;;;;;;;5057058;28;20398;-77
2023/06/01 13:58:26;;;;;;;1.40;1.30;;;;;;;;;;5039869;28;20115;-79
2023/06/01 14:00:52;;;;;;;1.20;1.10;;;;;;;;;;5042007;28;20028;-77
2023/06/01 14:03:18;;;;;;;4.95;1.63;;;;;;;;;;5047985;28;20033;-81
2023/06/01 14:05:44;;;;;;;1.67;1.30;;;;;;;;;;5030167;28;20046;-77
2023/06/01 14:08:11;;;;;;;4.47;1.75;;;;;;;;;;5048097;28;20029;-78
2023/06/01 14:10:37;;;;;;;1.83;1.60;;;;;;;;;;5033147;28;20029;-75
2023/06/01 14:13:03;;;;;;;2.60;1.23;;;;;;;;;;5041319;28;20025;-76
2023/06/01 14:15:30;;;;;;;2.88;1.45;;;;;;;;;;5033347;28;20428;-76
2023/06/01 14:17:56;;;;;;;2.80;1.67;;;;;;;;;;5034822;28;20037;-75
2023/06/01 14:20:22;;;;;;;1.42;1.33;;;;;;;;;;5036400;28;20048;-78
2023/06/01 14:22:48;;;;;;;1.95;1.23;;;;;;;;;;5031269;28;20033;-75
2023/06/01 14:25:14;;;;;;;3.10;1.65;;;;;;;;;;5038243;28;20028;-81
2023/06/01 14:27:40;;;;;;;1.52;1.33;;;;;;;;;;5032772;28;20021;-79
2023/06/01 14:30:07;;;;;;;3.22;1.10;;;;;;;;;;5035443;28;20027;-79
2023/06/01 14:32:33;;;;;;;1.52;1.15;;;;;;;;;;5033218;28;20064;-79
2023/06/01 14:35:00;;;;;;;2.10;1.83;;;;;;;;;;5044360;28;20116;-82
2023/06/01 14:37:26;;;;;;;1.63;1.17;;;;;;;;;;5044834;28;20025;-89
2023/06/01 14:39:52;;;;;;;1.88;1.30;;;;;;;;;;5033468;28;20052;-85
2023/06/01 14:42:23;;;;;;;1.25;1.10;;;;;;;;;;5031644;28;20025;-90
2023/06/01 14:44:49;;;;;;;3.03;1.40;;;;;;;;;;5041932;28;20021;-88